createdAt,value
2023-03-24T00:00:34.768Z,66.63
2023-03-24T00:03:02.719Z,63.15
2023-03-24T00:05:30.867Z,68.35
2023-03-24T00:08:02.191Z,58.05
2023-03-24T00:10:34.613Z,58.65
2023-03-24T00:13:02.920Z,56.75
2023-03-24T00:15:31.558Z,60.30
2023-03-24T00:17:59.109Z,63.13
2023-03-24T00:20:29.023Z,60.35
2023-03-24T00:22:58.647Z,57.55
2023-03-24T00:25:36.535Z,58.45
2023-03-24T00:28:07.246Z,59.53
2023-03-24T00:30:35.639Z,51.35
2023-03-24T00:33:04.331Z,54.60
2023-03-24T00:35:31.896Z,49.58
2023-03-24T00:37:59.371Z,47.38
2023-03-24T00:40:27.593Z,53.42
2023-03-24T00:42:56.159Z,49.40
2023-03-24T00:45:23.879Z,44.22
2023-03-24T00:47:54.618Z,46.15
2023-03-24T00:50:26.680Z,51.00
2023-03-24T00:52:55.856Z,52.35
2023-03-24T00:55:23.471Z,48.58
2023-03-24T00:57:51.454Z,56.53
2023-03-24T01:00:24.108Z,52.80
2023-03-24T01:02:56.247Z,55.53
2023-03-24T01:05:28.096Z,57.15
2023-03-24T01:08:03.768Z,57.63
2023-03-24T01:10:35.539Z,50.92
2023-03-24T01:13:03.988Z,58.20
2023-03-24T01:15:33.875Z,58.88
2023-03-24T01:18:04.612Z,57.10
2023-03-24T01:20:33.380Z,60.05
2023-03-24T01:23:02.826Z,62.70
2023-03-24T01:25:30.737Z,63.15
2023-03-24T01:27:58.373Z,65.38
2023-03-24T01:30:28.375Z,67.97
2023-03-24T01:32:56.550Z,58.20
2023-03-24T01:35:28.991Z,63.70
2023-03-24T01:37:57.798Z,58.83
2023-03-24T01:40:31.544Z,56.05
2023-03-24T01:42:59.886Z,61.25
2023-03-24T01:45:39.910Z,64.10
2023-03-24T01:48:25.569Z,59.63
2023-03-24T01:51:00.080Z,57.58
2023-03-24T01:53:28.794Z,62.80
2023-03-24T01:55:56.769Z,54.40
2023-03-24T01:58:32.414Z,63.88
2023-03-24T02:01:22.023Z,65.50
2023-03-24T02:04:04.370Z,59.80
2023-03-24T02:06:45.145Z,66.63
2023-03-24T02:09:15.646Z,65.20
2023-03-24T02:11:43.860Z,71.38
2023-03-24T02:14:12.380Z,58.55
2023-03-24T02:17:04.503Z,55.85
2023-03-24T02:19:47.666Z,51.95
2023-03-24T02:22:36.953Z,66.32
2023-03-24T02:25:45.943Z,61.33
2023-03-24T02:29:03.575Z,54.28
2023-03-24T02:31:49.367Z,61.17
2023-03-24T02:34:41.461Z,63.25
2023-03-24T02:37:21.670Z,53.03
2023-03-24T02:40:13.086Z,57.83
2023-03-24T02:42:59.380Z,49.25
2023-03-24T02:45:41.724Z,48.80
2023-03-24T02:48:17.914Z,47.30
2023-03-24T02:51:02.502Z,50.67
2023-03-24T02:53:38.181Z,55.92
2023-03-24T02:56:31.904Z,57.95
2023-03-24T02:59:22.178Z,61.42
2023-03-24T03:02:00.908Z,55.05
2023-03-24T03:04:50.041Z,60.60
2023-03-24T03:07:23.786Z,51.72
2023-03-24T03:10:06.016Z,67.78
2023-03-24T03:12:37.284Z,57.87
2023-03-24T03:15:12.432Z,56.10
2023-03-24T03:17:48.279Z,63.35
2023-03-24T03:20:24.354Z,54.92
2023-03-24T03:23:07.267Z,49.70
2023-03-24T03:25:42.200Z,53.95
2023-03-24T03:28:11.918Z,50.17
2023-03-24T03:30:45.253Z,53.00
2023-03-24T03:33:24.961Z,52.70
2023-03-24T03:36:07.033Z,49.55
2023-03-24T03:38:43.338Z,51.00
2023-03-24T03:41:11.431Z,49.70
2023-03-24T03:43:38.906Z,43.90
2023-03-24T03:46:07.599Z,46.70
2023-03-24T03:48:38.971Z,48.90
2023-03-24T03:51:13.690Z,54.92
2023-03-24T03:53:58.262Z,47.38
2023-03-24T03:56:32.662Z,50.72
2023-03-24T03:59:37.694Z,64.72
2023-03-24T04:02:38.237Z,45.28
2023-03-24T04:05:34.199Z,49.53
2023-03-24T04:08:11.144Z,44.97
2023-03-24T04:10:59.715Z,48.72
2023-03-24T04:13:46.303Z,46.30
2023-03-24T04:16:24.947Z,49.20
2023-03-24T04:19:38.740Z,57.60
2023-03-24T04:22:13.104Z,50.05
2023-03-24T04:25:02.050Z,50.70
2023-03-24T04:27:46.575Z,55.50
2023-03-24T04:30:40.607Z,50.40
2023-03-24T04:33:22.338Z,51.40
2023-03-24T04:36:06.502Z,55.25
2023-03-24T04:38:54.963Z,56.35
2023-03-24T04:41:33.033Z,52.40
2023-03-24T04:44:11.493Z,45.58
2023-03-24T04:46:57.815Z,47.22
2023-03-24T04:49:25.543Z,46.53
2023-03-24T04:51:53.523Z,47.28
2023-03-24T04:54:28.271Z,55.28
2023-03-24T04:57:04.112Z,47.58
2023-03-24T04:59:40.694Z,53.03
2023-03-24T05:02:09.146Z,55.05
2023-03-24T05:04:55.253Z,52.17
2023-03-24T05:07:31.758Z,52.78
2023-03-24T05:10:01.873Z,50.92
2023-03-24T05:12:30.041Z,54.00
2023-03-24T05:15:16.064Z,50.38
2023-03-24T05:17:44.625Z,61.33
2023-03-24T05:20:12.557Z,58.65
2023-03-24T05:22:43.459Z,47.90
2023-03-24T05:25:11.088Z,50.72
2023-03-24T05:27:38.718Z,45.60
2023-03-24T05:30:22.450Z,57.60
2023-03-24T05:32:53.424Z,51.67
2023-03-24T05:35:21.752Z,50.50
2023-03-24T05:37:49.686Z,62.35
2023-03-24T05:40:17.656Z,56.97
2023-03-24T05:43:08.303Z,69.88
2023-03-24T05:45:41.426Z,60.70
2023-03-24T05:48:11.203Z,60.60
2023-03-24T05:51:06.741Z,53.90
2023-03-24T05:53:34.233Z,60.10
2023-03-24T05:56:13.678Z,60.75
2023-03-24T05:59:01.523Z,60.83
2023-03-24T06:01:48.878Z,63.38
2023-03-24T06:04:50.904Z,57.00
2023-03-24T06:07:22.207Z,55.05
2023-03-24T06:09:51.009Z,63.13
2023-03-24T06:12:18.864Z,69.75
2023-03-24T06:15:07.639Z,69.30
2023-03-24T06:17:35.141Z,69.47
2023-03-24T06:20:15.611Z,80.47
2023-03-24T06:22:49.810Z,78.15
2023-03-24T06:25:26.195Z,73.32
2023-03-24T06:28:16.326Z,81.53
2023-03-24T06:30:46.869Z,94.90
2023-03-24T06:33:22.185Z,86.53
2023-03-24T06:35:54.218Z,109.90
2023-03-24T06:38:22.281Z,189.80
2023-03-24T06:40:49.823Z,161.88
2023-03-24T06:43:17.446Z,123.40
2023-03-24T06:45:46.129Z,100.70
2023-03-24T06:48:19.985Z,101.60
2023-03-24T06:50:48.268Z,98.60
2023-03-24T06:53:17.032Z,150.90
2023-03-24T06:55:44.913Z,114.63
2023-03-24T06:58:14.985Z,172.93
2023-03-24T07:00:53.800Z,265.38
2023-03-24T07:03:32.837Z,99.68
2023-03-24T07:06:23.598Z,184.10
2023-03-24T07:08:55.197Z,106.43
2023-03-24T07:11:27.317Z,88.50
2023-03-24T07:13:58.542Z,99.10
2023-03-24T07:16:28.688Z,121.78
2023-03-24T07:19:03.880Z,91.57
2023-03-24T07:21:35.101Z,78.53
2023-03-24T07:24:02.632Z,83.55
2023-03-24T07:26:53.149Z,80.88
2023-03-24T07:29:23.907Z,77.50
2023-03-24T07:32:14.686Z,88.93
2023-03-24T07:34:43.903Z,83.28
2023-03-24T07:37:11.519Z,80.93
2023-03-24T07:39:38.928Z,78.97
2023-03-24T07:42:06.703Z,100.57
2023-03-24T07:44:48.364Z,103.90
2023-03-24T07:47:15.804Z,89.68
2023-03-24T07:49:43.333Z,90.18
2023-03-24T07:52:12.070Z,88.97
2023-03-24T07:54:43.458Z,93.53
2023-03-24T07:57:16.958Z,107.75
2023-03-24T07:59:44.896Z,93.60
2023-03-24T08:02:21.120Z,123.80
2023-03-24T08:05:22.732Z,98.28
2023-03-24T08:07:58.577Z,108.07
2023-03-24T08:10:29.776Z,100.93
2023-03-24T08:12:57.997Z,99.65
2023-03-24T08:15:27.207Z,100.60
2023-03-24T08:17:56.396Z,107.38
2023-03-24T08:20:27.149Z,110.10
2023-03-24T08:22:54.963Z,101.15
2023-03-24T08:25:25.768Z,101.38
2023-03-24T08:27:53.766Z,108.88
2023-03-24T08:30:26.027Z,110.32
2023-03-24T08:32:59.435Z,111.85
2023-03-24T08:35:33.069Z,100.30
2023-03-24T08:38:01.678Z,104.30
2023-03-24T08:40:34.801Z,95.13
2023-03-24T08:43:04.539Z,110.32
2023-03-24T08:45:32.716Z,97.82
2023-03-24T08:48:02.147Z,107.32
2023-03-24T08:50:34.562Z,97.95
2023-03-24T08:55:29.812Z,95.07
2023-03-24T08:57:57.545Z,100.97
2023-03-24T09:00:25.704Z,82.32
2023-03-24T09:02:55.724Z,89.40
2023-03-24T09:05:33.305Z,93.38
2023-03-24T09:08:08.749Z,72.22
2023-03-24T09:10:36.407Z,93.22
2023-03-24T09:13:04.563Z,78.60
2023-03-24T09:15:32.609Z,67.80
2023-03-24T09:18:00.831Z,66.70
2023-03-24T09:20:28.344Z,69.18
2023-03-24T09:22:56.153Z,63.30
2023-03-24T09:25:24.714Z,67.88
2023-03-24T09:27:52.632Z,63.47
2023-03-24T09:30:20.075Z,62.92
2023-03-24T09:32:47.507Z,68.43
2023-03-24T09:35:15.640Z,62.70
2023-03-24T09:37:43.935Z,68.00
2023-03-24T09:40:27.698Z,62.45
2023-03-24T09:43:21.202Z,60.58
2023-03-24T09:45:57.842Z,60.53
2023-03-24T09:48:39.705Z,46.28
2023-03-24T09:51:15.737Z,45.17
2023-03-24T09:53:50.245Z,38.42
2023-03-24T09:56:19.579Z,48.70
2023-03-24T09:58:53.754Z,48.88
2023-03-24T10:01:21.531Z,38.05
2023-03-24T10:03:49.007Z,41.20
2023-03-24T10:06:40.178Z,34.15
2023-03-24T10:09:16.934Z,30.38
2023-03-24T10:11:50.960Z,40.70
2023-03-24T10:14:51.141Z,25.95
2023-03-24T10:17:46.785Z,19.38
2023-03-24T10:20:27.886Z,16.35
2023-03-24T10:23:24.401Z,11.70
2023-03-24T10:26:22.277Z,12.15
2023-03-24T10:28:55.614Z,7.47
2023-03-24T10:31:29.729Z,8.93
2023-03-24T10:33:57.486Z,11.05
2023-03-24T10:36:26.260Z,6.18
2023-03-24T10:38:54.293Z,7.72
2023-03-24T10:41:25.941Z,9.68
2023-03-24T10:43:56.436Z,5.95
2023-03-24T10:46:26.834Z,7.07
2023-03-24T10:49:10.190Z,8.82
2023-03-24T10:51:38.191Z,5.82
2023-03-24T10:54:13.181Z,5.35
2023-03-24T10:56:43.783Z,3.45
2023-03-24T10:59:25.784Z,7.00
2023-03-24T11:02:09.654Z,10.57
2023-03-24T11:04:39.402Z,9.38
2023-03-24T11:07:16.123Z,3.45
2023-03-24T11:09:46.368Z,7.80
2023-03-24T11:12:26.665Z,5.00
2023-03-24T11:15:20.182Z,5.18
2023-03-24T11:18:07.393Z,11.93
2023-03-24T11:21:01.155Z,8.60
2023-03-24T11:23:39.262Z,3.47
2023-03-24T11:26:15.648Z,21.65
2023-03-24T11:28:47.225Z,6.65
2023-03-24T11:31:24.606Z,8.52
2023-03-24T11:34:09.332Z,8.07
2023-03-24T11:37:04.039Z,4.45
2023-03-24T11:39:34.241Z,5.53
2023-03-24T11:42:10.656Z,5.90
2023-03-24T11:44:38.098Z,6.97
2023-03-24T11:47:28.976Z,6.22
2023-03-24T11:50:18.825Z,7.90
2023-03-24T11:52:52.622Z,6.10
2023-03-24T11:55:37.084Z,19.17
2023-03-24T11:58:29.187Z,9.27
2023-03-24T12:01:04.204Z,8.63
2023-03-24T12:03:50.065Z,5.93
2023-03-24T12:06:30.345Z,7.03
2023-03-24T12:09:00.638Z,6.45
2023-03-24T12:11:36.865Z,9.35
2023-03-24T12:14:05.033Z,8.68
2023-03-24T12:17:03.663Z,7.00
2023-03-24T12:19:53.955Z,8.55
2023-03-24T12:22:58.614Z,7.57
2023-03-24T12:25:50.229Z,8.40
2023-03-24T12:28:51.527Z,26.08
2023-03-24T12:31:48.539Z,7.82
2023-03-24T12:34:24.701Z,7.03
2023-03-24T12:37:08.899Z,7.40
2023-03-24T12:39:57.913Z,7.88
2023-03-24T12:42:30.047Z,7.25
2023-03-24T12:45:00.271Z,6.00
2023-03-24T12:47:47.869Z,8.85
2023-03-24T12:50:39.129Z,6.47
2023-03-24T12:53:16.285Z,7.93
2023-03-24T12:55:55.743Z,10.02
2023-03-24T12:58:33.681Z,7.47
2023-03-24T13:01:19.296Z,10.20
2023-03-24T13:04:07.054Z,8.52
2023-03-24T13:06:40.202Z,10.38
2023-03-24T13:09:34.176Z,10.10
2023-03-24T13:12:20.685Z,6.45
2023-03-24T13:15:09.364Z,9.02
2023-03-24T13:17:44.908Z,8.32
2023-03-24T13:20:33.089Z,10.82
2023-03-24T13:23:56.592Z,9.68
2023-03-24T13:26:49.632Z,13.40
2023-03-24T13:29:48.602Z,8.27
2023-03-24T13:32:16.921Z,8.82
2023-03-24T13:35:17.902Z,9.85
2023-03-24T13:37:48.786Z,9.73
2023-03-24T13:40:26.288Z,10.40
2023-03-24T13:43:07.178Z,9.80
2023-03-24T13:45:34.636Z,6.95
2023-03-24T13:48:17.902Z,14.43
2023-03-24T13:51:00.140Z,12.23
2023-03-24T13:53:53.861Z,9.30
2023-03-24T13:56:36.414Z,8.45
2023-03-24T14:02:10.276Z,10.70
2023-03-24T14:05:05.794Z,9.95
2023-03-24T14:07:39.247Z,10.68
2023-03-24T14:10:16.116Z,12.00
2023-03-24T14:12:54.876Z,8.93
2023-03-24T14:15:31.220Z,11.88
2023-03-24T14:18:23.834Z,10.55
2023-03-24T14:23:45.776Z,13.80
2023-03-24T14:26:34.163Z,13.70
2023-03-24T14:29:02.000Z,16.15
2023-03-24T14:31:36.194Z,9.77
2023-03-24T14:34:16.982Z,8.43
2023-03-24T14:36:45.655Z,11.63
2023-03-24T14:39:26.327Z,14.77
2023-03-24T14:41:55.093Z,14.35
2023-03-24T14:44:59.329Z,9.90
2023-03-24T14:47:30.845Z,10.77
2023-03-24T14:50:00.238Z,12.75
2023-03-24T14:52:32.110Z,9.52
2023-03-24T14:55:06.816Z,9.10
2023-03-24T14:57:51.519Z,8.27
2023-03-24T15:00:57.899Z,9.30
2023-03-24T15:03:42.840Z,10.23
2023-03-24T15:06:17.127Z,10.38
2023-03-24T15:08:56.718Z,7.55
2023-03-24T15:11:27.986Z,8.55
2023-03-24T15:13:57.554Z,7.90
2023-03-24T15:16:29.618Z,9.27
2023-03-24T15:19:08.518Z,8.95
2023-03-24T15:21:38.402Z,10.70
2023-03-24T15:24:21.186Z,12.70
2023-03-24T15:27:08.084Z,10.57
2023-03-24T15:29:37.626Z,8.05
2023-03-24T15:32:06.371Z,6.57
2023-03-24T15:34:33.981Z,8.38
2023-03-24T15:37:03.945Z,11.52
2023-03-24T15:39:36.322Z,9.88
2023-03-24T15:44:40.405Z,7.18
2023-03-24T15:47:25.965Z,10.50
2023-03-24T15:49:58.863Z,8.25
2023-03-24T15:52:37.670Z,10.50
2023-03-24T15:55:24.235Z,8.93
2023-03-24T15:57:53.657Z,6.28
2023-03-24T16:00:26.344Z,9.30
2023-03-24T16:02:56.482Z,8.93
2023-03-24T16:05:26.724Z,9.27
2023-03-24T16:08:06.825Z,9.23
2023-03-24T16:10:45.315Z,13.20
2023-03-24T16:13:14.690Z,15.57
2023-03-24T16:15:57.164Z,15.70
2023-03-24T16:21:09.251Z,14.35
2023-03-24T16:23:36.796Z,9.88
2023-03-24T16:26:04.398Z,20.15
2023-03-24T16:28:33.839Z,23.30
2023-03-24T16:31:04.362Z,13.27
2023-03-24T16:33:32.666Z,19.30
2023-03-24T16:36:00.867Z,12.48
2023-03-24T16:38:28.404Z,20.80
2023-03-24T16:40:57.849Z,17.55
2023-03-24T16:43:27.481Z,17.60
2023-03-24T16:45:55.513Z,17.38
2023-03-24T16:48:22.936Z,19.63
2023-03-24T16:50:52.264Z,16.35
2023-03-24T16:53:19.779Z,17.55
2023-03-24T16:55:47.742Z,21.02
2023-03-24T16:58:16.771Z,20.25
2023-03-24T17:00:45.604Z,17.13
2023-03-24T17:03:14.207Z,16.58
2023-03-24T17:05:49.453Z,19.25
2023-03-24T17:08:18.698Z,20.38
2023-03-24T17:10:50.475Z,13.02
2023-03-24T17:13:23.882Z,22.42
2023-03-24T17:15:52.623Z,13.93
2023-03-24T17:18:20.410Z,16.98
2023-03-24T17:20:48.347Z,14.73
2023-03-24T17:23:18.674Z,12.30
2023-03-24T17:25:46.129Z,16.48
2023-03-24T17:28:18.078Z,11.60
2023-03-24T17:30:45.807Z,13.73
2023-03-24T17:33:14.876Z,17.30
2023-03-24T17:35:46.681Z,13.45
2023-03-24T17:38:16.518Z,19.17
2023-03-24T17:40:44.705Z,17.15
2023-03-24T17:43:12.748Z,15.20
2023-03-24T17:45:41.305Z,20.95
2023-03-24T17:48:08.784Z,18.55
2023-03-24T17:50:36.155Z,19.27
2023-03-24T17:53:03.566Z,12.40
2023-03-24T17:55:30.886Z,10.70
2023-03-24T17:57:58.279Z,14.75
2023-03-24T18:00:25.770Z,17.30
2023-03-24T18:02:53.150Z,23.17
2023-03-24T18:05:20.554Z,17.70
2023-03-24T18:07:48.031Z,31.02
2023-03-24T18:10:15.603Z,22.20
2023-03-24T18:12:42.945Z,34.55
2023-03-24T18:15:10.827Z,23.73
2023-03-24T18:17:38.192Z,22.33
2023-03-24T18:20:10.847Z,16.33
2023-03-24T18:22:40.982Z,23.38
2023-03-24T18:25:12.370Z,13.88
2023-03-24T18:27:43.093Z,17.67
2023-03-24T18:30:14.428Z,14.18
2023-03-24T18:35:17.325Z,15.18
2023-03-24T18:37:46.320Z,21.48
2023-03-24T18:40:16.241Z,15.63
2023-03-24T18:42:45.009Z,16.27
2023-03-24T18:45:18.139Z,22.00
2023-03-24T18:47:48.106Z,19.25
2023-03-24T18:50:18.053Z,22.98
2023-03-24T18:52:47.040Z,19.42
2023-03-24T18:55:18.725Z,13.68
2023-03-24T18:57:48.948Z,10.55
2023-03-24T19:00:21.020Z,22.92
2023-03-24T19:02:50.612Z,9.60
2023-03-24T19:05:20.629Z,16.85
2023-03-24T19:07:52.553Z,23.85
2023-03-24T19:10:22.396Z,24.58
2023-03-24T19:12:51.886Z,18.15
2023-03-24T19:15:22.399Z,19.42
2023-03-24T19:17:51.456Z,24.17
2023-03-24T19:20:21.355Z,16.10
2023-03-24T19:22:50.347Z,18.05
2023-03-24T19:25:20.498Z,26.65
2023-03-24T19:27:50.202Z,19.77
2023-03-24T19:30:19.112Z,23.02
2023-03-24T19:32:48.438Z,16.80
2023-03-24T19:35:18.394Z,19.88
2023-03-24T19:37:47.578Z,22.02
2023-03-24T19:40:15.651Z,16.45
2023-03-24T19:42:44.994Z,19.08
2023-03-24T19:45:15.865Z,24.38
2023-03-24T19:47:43.951Z,16.17
2023-03-24T19:50:13.015Z,14.82
2023-03-24T19:52:43.107Z,21.42
2023-03-24T19:55:10.648Z,21.17
2023-03-24T19:57:38.226Z,13.18
2023-03-24T20:00:09.418Z,20.23
2023-03-24T20:02:37.828Z,15.02
2023-03-24T20:05:06.830Z,17.17
2023-03-24T20:07:35.888Z,14.50
2023-03-24T20:10:06.661Z,20.85
2023-03-24T20:12:34.079Z,16.13
2023-03-24T20:15:01.501Z,16.00
2023-03-24T20:17:29.610Z,23.50
2023-03-24T20:19:57.063Z,19.50
2023-03-24T20:22:24.437Z,20.58
2023-03-24T20:24:51.871Z,21.30
2023-03-24T20:27:19.252Z,13.00
2023-03-24T20:29:46.761Z,21.15
2023-03-24T20:32:15.287Z,16.65
2023-03-24T20:34:42.714Z,19.23
2023-03-24T20:37:10.481Z,15.80
2023-03-24T20:39:40.371Z,14.77
2023-03-24T20:42:07.731Z,15.38
2023-03-24T20:44:35.305Z,19.30
2023-03-24T20:47:03.301Z,16.77
2023-03-24T20:49:31.042Z,13.25
2023-03-24T20:51:58.582Z,13.05
2023-03-24T20:54:26.075Z,15.05
2023-03-24T20:56:53.620Z,18.30
2023-03-24T20:59:22.355Z,16.38
2023-03-24T21:01:49.717Z,16.95
2023-03-24T21:04:18.888Z,17.58
2023-03-24T21:06:46.381Z,15.55
2023-03-24T21:09:13.732Z,14.07
2023-03-24T21:11:45.345Z,12.30
2023-03-24T21:14:13.021Z,18.90
2023-03-24T21:16:40.569Z,15.95
2023-03-24T21:19:10.357Z,20.25
2023-03-24T21:21:38.479Z,16.08
2023-03-24T21:24:06.256Z,13.73
2023-03-24T21:26:33.697Z,13.00
2023-03-24T21:29:01.069Z,20.13
2023-03-24T21:31:29.636Z,13.68
2023-03-24T21:33:57.661Z,17.63
2023-03-24T21:36:29.984Z,15.63
2023-03-24T21:41:25.476Z,16.00
2023-03-24T21:43:54.238Z,17.83
2023-03-24T21:46:22.551Z,11.45
2023-03-24T21:48:52.262Z,10.90
2023-03-24T21:51:25.226Z,14.88
2023-03-24T21:53:56.711Z,17.23
2023-03-24T21:56:24.121Z,9.47
2023-03-24T21:58:54.893Z,11.52
2023-03-24T22:01:23.091Z,18.27
2023-03-24T22:03:51.136Z,11.73
2023-03-24T22:06:18.556Z,15.48
2023-03-24T22:08:48.848Z,20.30
2023-03-24T22:11:18.783Z,14.57
2023-03-24T22:13:46.915Z,14.70
2023-03-24T22:16:14.920Z,11.18
2023-03-24T22:18:42.474Z,9.80
2023-03-24T22:21:11.192Z,16.02
2023-03-24T22:23:42.724Z,9.55
2023-03-24T22:26:13.233Z,14.57
2023-03-24T22:28:41.201Z,7.70
2023-03-24T22:31:14.123Z,7.95
2023-03-24T22:33:41.784Z,10.55
2023-03-24T22:36:10.787Z,10.32
2023-03-24T22:38:38.404Z,9.80
2023-03-24T22:41:08.405Z,9.32
2023-03-24T22:43:36.516Z,9.68
2023-03-24T22:46:04.122Z,8.45
2023-03-24T22:48:31.836Z,10.68
2023-03-24T22:50:59.249Z,9.02
2023-03-24T22:53:29.554Z,11.15
2023-03-24T22:55:57.171Z,6.97
2023-03-24T22:58:24.587Z,9.15
2023-03-24T23:00:56.337Z,9.60
2023-03-24T23:03:23.848Z,4.40
2023-03-24T23:05:51.608Z,7.80
2023-03-24T23:08:20.532Z,7.85
2023-03-24T23:10:49.043Z,6.47
2023-03-24T23:13:20.063Z,7.07
2023-03-24T23:15:52.365Z,8.35
2023-03-24T23:18:20.462Z,10.13
2023-03-24T23:20:47.907Z,8.00
2023-03-24T23:23:15.461Z,4.47
2023-03-24T23:25:45.013Z,5.07
2023-03-24T23:28:13.656Z,14.32
2023-03-24T23:30:42.139Z,7.32
2023-03-24T23:33:14.627Z,8.00
2023-03-24T23:35:42.506Z,7.32
2023-03-24T23:38:10.164Z,9.70
2023-03-24T23:40:38.062Z,9.55
2023-03-24T23:43:06.166Z,5.13
2023-03-24T23:45:34.045Z,8.80
2023-03-24T23:48:01.902Z,8.02
2023-03-24T23:50:29.744Z,7.40
2023-03-24T23:52:57.798Z,15.43
2023-03-24T23:55:29.627Z,7.80
2023-03-24T23:57:57.260Z,16.70
